Terminal Aerodrome Forecast
Issued by NWS

Home | Current Version | Previous Version | Text Only | Print | Product List | Glossary On
Versions: 1 2 3 4 5 6 7 8 9 10 11 12 13 14 15 16 17 18 19 20 21
000
FTUS43 KICT 220520
TAFRSL
TAF
KRSL 220520Z 2206/2306 05008KT P6SM VCSH SCT025 BKN030
     FM220700 06007KT 5SM -SNPL SCT015 OVC025
     FM221200 07006KT 2SM -FZDZSN OVC007
     FM221700 09006KT P6SM OVC012
     FM222100 15011KT P6SM OVC015
     FM230300 12009KT 4SM BR BKN008=

USA.gov is the U.S. government's official web portal to all federal, state and local government web resources and services.